Terminal Aerodrome Forecast
Issued by NWS

Home | Current Version | Previous Version | Text Only | Print | Product List | Glossary On
Versions: 1 2 3 4 5 6 7 8 9 10 11 12 13 14 15 16 17 18 19 20 21
000
FTUS43 KGRR 280000 AAA
TAFLAN
TAF AMD
KLAN 280038Z 2801/2824 25017G24KT P6SM OVC017
     FM280300 28010KT P6SM OVC015
     FM281600 28006KT P6SM FEW025=

USA.gov is the U.S. government's official web portal to all federal, state and local government web resources and services.